This is the latest recevied weather packets stored in our database for station/object DH1FR-13. If no packets are shown the sender has not sent any weather packets the latest 1 day(s).
| Time | Temp. | Humidity | Pressure | Rain* | Wind** | Luminosity | Snow |
|---|---|---|---|---|---|---|---|
| 1778002201 | 12.22° C | 99% | 1010.2 hPa | 14.48 mm | 0 m/s | - | - |
| 1778001601 | 12.78° C | 99% | 1010.3 hPa | 14.48 mm | 0 m/s | - | - |
| 1778001000 | 12.78° C | 99% | 1010.3 hPa | 13.46 mm | 0 m/s | - | - |
| 1778000401 | 12.78° C | 98% | 1010.3 hPa | 12.95 mm | 0 m/s | - | - |
| 1777999801 | 12.78° C | 98% | 1010 hPa | 12.19 mm | 0 m/s | - | - |
| 1777999201 | 13.33° C | 98% | 1010.3 hPa | 11.18 mm | 0 m/s | - | - |
| 1777998601 | 13.33° C | 96% | 1010 hPa | 10.67 mm | 0 m/s | - | - |
| 1777998002 | 13.89° C | 95% | 1009.6 hPa | 9.65 mm | 0 m/s | - | - |
| 1777997401 | 16.11° C | 87% | 1009.5 hPa | 0.76 mm | 0 m/s | - | - |
| 1777996801 | 16.67° C | 86% | 1009.1 hPa | 0.25 mm | 0 m/s | - | - |
| 1777996200 | 17.78° C | 81% | 1009.2 hPa | 0 mm | 0 m/s | - | - |
| 1777995601 | 18.33° C | 73% | 1009.3 hPa | 0 mm | 0 m/s | - | - |
| 1777995001 | 18.89° C | 70% | 1009.3 hPa | 0 mm | 0 m/s | - | - |
| 1777994400 | 18.89° C | 68% | 1009.4 hPa | 0 mm | 0 m/s | - | - |
| 1777993800 | 20° C | 65% | 1009.5 hPa | 0 mm | 0 m/s | - | - |
| 1777993201 | 20° C | 59% | 1009.6 hPa | 0 mm | 0 m/s | - | - |
| 1777992601 | 20.56° C | 59% | 1009.7 hPa | 0 mm | 0 m/s | - | - |
| 1777992001 | 20.56° C | 57% | 1009.6 hPa | 0 mm | 0 m/s | - | - |
| 1777990800 | 21.11° C | 57% | 1009.9 hPa | 0 mm | 0 m/s | - | - |
| 1777990201 | 20.56° C | 60% | 1009.9 hPa | 0 mm | 0 m/s | - | - |
| 1777989601 | 20.56° C | 59% | 1010.2 hPa | 0 mm | 0 m/s | - | - |
| 1777989001 | 20.56° C | 57% | 1010.3 hPa | 0 mm | 0 m/s | - | - |
| 1777988400 | 0° C | 100% | - | - | 0 m/s | - | - |
| 1777987800 | 21.67° C | 56% | 1010.3 hPa | 0 mm | 0 m/s | - | - |
| 1777987201 | 21.11° C | 58% | 1010.7 hPa | 0 mm | 0 m/s | - | - |
* Rain latest hour (hover to see other rain measurements)
** Current wind speed in m/s (hover to see current wind gust speed)